createdAt,value
2022-12-09T00:01:19.941Z,97420.0977490787
2022-12-09T00:04:17.619Z,97417.31688412721
2022-12-09T00:07:17.092Z,97416.84687663338
2022-12-09T00:11:17.014Z,97412.4775309587
2022-12-09T00:14:16.169Z,97402.76010433027
2022-12-09T00:17:16.259Z,97409.64701727971
2022-12-09T00:21:20.466Z,97397.1265871435
2022-12-09T00:24:16.172Z,97404.16681845447
2022-12-09T00:27:16.117Z,97400.68934873548
2022-12-09T00:31:19.419Z,97395.09753047007
2022-12-09T00:34:17.043Z,97393.60464776897
2022-12-09T00:37:17.105Z,97402.49251887173
2022-12-09T00:41:17.561Z,97401.78089960048
2022-12-09T00:44:16.778Z,97395.54539192421
2022-12-09T00:47:16.884Z,97383.68423832548
2022-12-09T00:51:17.630Z,97392.25583993533
2022-12-09T00:54:16.556Z,97393.58746803661
2022-12-09T00:57:16.601Z,97393.03161489083
2022-12-09T01:01:16.337Z,97386.9312240458
2022-12-09T01:04:17.540Z,97386.07806376193
2022-12-09T01:07:16.507Z,97386.59200193442
2022-12-09T01:11:19.895Z,97388.74387208516
2022-12-09T01:14:16.854Z,97376.2485862862
2022-12-09T01:17:16.531Z,97375.07711048894
2022-12-09T01:21:16.257Z,97359.59804903204
2022-12-09T01:24:16.517Z,97370.11047471597
2022-12-09T01:27:16.704Z,97367.92562143656
2022-12-09T01:31:19.637Z,97376.21498005468
2022-12-09T01:34:17.430Z,97380.55319913695
2022-12-09T01:37:16.802Z,97376.56952527739
2022-12-09T01:41:17.556Z,97379.54504884235
2022-12-09T01:44:20.176Z,97387.55119057311
2022-12-09T01:47:21.377Z,97382.66740484034
2022-12-09T01:51:18.951Z,97381.77838498683
2022-12-09T01:54:16.508Z,97354.79390925569
2022-12-09T01:57:17.084Z,97355.25370075133
2022-12-09T02:01:17.616Z,97361.68188195983
2022-12-09T02:04:17.173Z,97366.91140413344
2022-12-09T02:07:18.789Z,97361.81752841362
2022-12-09T02:11:24.924Z,97367.69155206293
2022-12-09T02:14:21.185Z,97358.57354276079
2022-12-09T02:17:28.139Z,97358.29807582714
2022-12-09T02:21:20.830Z,97335.73796048645
2022-12-09T02:24:24.118Z,97338.1412602362
2022-12-09T02:27:23.429Z,97330.05828285082
2022-12-09T02:31:27.450Z,97321.31579928621
2022-12-09T02:34:18.440Z,97316.01375011705
2022-12-09T02:37:21.402Z,97316.9949474928
2022-12-09T02:41:18.469Z,97316.53102117279
2022-12-09T02:44:20.583Z,97304.83140481265
2022-12-09T02:47:19.682Z,97301.06137275387
2022-12-09T02:51:18.829Z,97300.11391918744
2022-12-09T02:54:18.085Z,97297.2314215649
2022-12-09T02:57:22.446Z,97306.0715260391
2022-12-09T03:01:21.989Z,97301.35871448345
2022-12-09T03:04:20.682Z,97292.58992698831
2022-12-09T03:07:24.677Z,97294.0085290574
2022-12-09T03:11:18.239Z,97285.7819782468
2022-12-09T03:14:22.094Z,97261.36840074688
2022-12-09T03:17:20.453Z,97272.43805054725
2022-12-09T03:21:20.419Z,97275.80800894297
2022-12-09T03:24:21.833Z,97283.69391711062
2022-12-09T03:27:24.791Z,97289.2826731419
2022-12-09T03:31:21.422Z,97291.12145093603
2022-12-09T03:34:20.634Z,97279.16940616058
2022-12-09T03:37:19.397Z,97269.30033917475
2022-12-09T03:41:24.875Z,97274.69671611431
2022-12-09T03:44:21.435Z,97267.14614929323
2022-12-09T03:47:17.226Z,97265.529728784
2022-12-09T03:51:24.413Z,97268.26423572154
2022-12-09T03:54:21.476Z,97275.42660382677
2022-12-09T03:57:19.933Z,97263.14557966977
2022-12-09T04:01:17.403Z,97260.74591105565
2022-12-09T04:04:16.946Z,97260.61806859089
2022-12-09T04:07:17.576Z,97265.47597806648
2022-12-09T04:11:16.525Z,97247.59758265108
2022-12-09T04:14:16.591Z,97248.66680318986
2022-12-09T04:17:16.723Z,97248.64021632784
2022-12-09T04:21:16.113Z,97244.44391763683
2022-12-09T04:24:16.574Z,97253.93130657295
2022-12-09T04:27:16.469Z,97248.95069428558
2022-12-09T04:31:18.351Z,97237.05388073917
2022-12-09T04:34:17.007Z,97234.93638445028
2022-12-09T04:37:17.341Z,97242.16626178488
2022-12-09T04:41:16.421Z,97244.95671701837
2022-12-09T04:44:16.890Z,97236.44964340923
2022-12-09T04:47:16.995Z,97231.49392053619
2022-12-09T04:51:16.350Z,97234.03104302206
2022-12-09T04:54:16.253Z,97232.58378059833
2022-12-09T04:57:16.528Z,97232.53924169844
2022-12-09T05:01:21.612Z,97225.59051390312
2022-12-09T05:04:17.352Z,97226.94484560016
2022-12-09T05:07:17.169Z,97219.18046031134
2022-12-09T05:11:18.020Z,97207.35608537753
2022-12-09T05:14:17.513Z,97209.93448368725
2022-12-09T05:21:19.344Z,97176.61670424724
2022-12-09T05:24:17.228Z,97178.84958032763
2022-12-09T05:27:16.916Z,97179.82399071047
2022-12-09T05:31:20.383Z,97175.04452665133
2022-12-09T05:34:16.728Z,97193.59806410366
2022-12-09T05:37:16.664Z,97194.8244330172
2022-12-09T05:41:17.248Z,97181.52080176208
2022-12-09T05:44:17.217Z,97176.51864476714
2022-12-09T05:47:17.123Z,97165.02277753559
2022-12-09T05:51:21.895Z,97167.33512516036
2022-12-09T05:54:16.737Z,97171.54653882541
2022-12-09T05:57:17.073Z,97164.58233758241
2022-12-09T06:01:17.355Z,97168.96979829967
2022-12-09T06:04:17.157Z,97175.22855670132
2022-12-09T06:07:17.196Z,97171.5482365161
2022-12-09T06:11:18.067Z,97154.91843618792
2022-12-09T06:14:16.251Z,97166.12958391101
2022-12-09T06:17:16.478Z,97151.6619533952
2022-12-09T06:21:17.752Z,97157.0897198674
2022-12-09T06:24:16.635Z,97174.42085236135
2022-12-09T06:27:16.218Z,97173.25732189853
2022-12-09T06:31:16.549Z,97186.32511270739
2022-12-09T06:34:16.572Z,97180.67627519107
2022-12-09T06:37:16.591Z,97165.96302703544
2022-12-09T06:41:16.395Z,97166.5230107542
2022-12-09T06:44:23.239Z,97165.84061767405
2022-12-09T06:47:16.877Z,97169.38245778816
2022-12-09T06:51:17.872Z,97176.16930244901
2022-12-09T06:54:17.353Z,97186.83197107875
2022-12-09T06:57:17.210Z,97167.84105808217
2022-12-09T07:01:20.025Z,97166.96682913664
2022-12-09T07:04:17.809Z,97148.9870446108
2022-12-09T07:07:17.598Z,97153.15083764106
2022-12-09T07:11:16.951Z,97145.04299742787
2022-12-09T07:14:19.493Z,97150.41111239736
2022-12-09T07:17:18.689Z,97149.74710979105
2022-12-09T07:21:18.880Z,97144.79791351993
2022-12-09T07:24:17.330Z,97156.73919995679
2022-12-09T07:27:19.732Z,97160.05337479028
2022-12-09T07:31:19.389Z,97151.91091466084
2022-12-09T07:34:17.636Z,97155.1547581863
2022-12-09T07:37:17.072Z,97159.41374523794
2022-12-09T07:41:18.565Z,97158.11742674843
2022-12-09T07:44:17.400Z,97161.60439573224
2022-12-09T07:47:17.206Z,97166.86559896544
2022-12-09T07:51:16.956Z,97164.21942838683
2022-12-09T07:54:18.330Z,97161.75212160953
2022-12-09T07:57:16.551Z,97169.5377879957
2022-12-09T08:01:21.062Z,97158.41937145514
2022-12-09T08:04:17.084Z,97162.46788295053
2022-12-09T08:07:16.617Z,97159.20034729328
2022-12-09T08:11:18.983Z,97160.59467297452
2022-12-09T08:14:17.505Z,97160.3671529935
2022-12-09T08:17:17.828Z,97159.84737776742
2022-12-09T08:21:19.712Z,97160.55073176544
2022-12-09T08:24:17.255Z,97160.44191884786
2022-12-09T08:27:16.993Z,97153.27730669
2022-12-09T08:31:19.768Z,97147.14492856746
2022-12-09T08:34:17.083Z,97159.80342697212
2022-12-09T08:37:17.088Z,97160.98008070225
2022-12-09T08:41:19.468Z,97178.50200654045
2022-12-09T08:44:18.738Z,97179.19360801374
2022-12-09T08:47:17.114Z,97184.81992077694
2022-12-09T08:51:17.855Z,97171.20878949236
2022-12-09T08:54:17.383Z,97161.38857042936
2022-12-09T08:57:21.094Z,97161.62744346511
2022-12-09T09:01:18.812Z,97168.65828216082
2022-12-09T09:04:19.598Z,97172.68533330997
2022-12-09T09:07:17.523Z,97168.26222997144
2022-12-09T09:11:19.702Z,97190.37427507062
2022-12-09T09:14:17.530Z,97165.68824713118
2022-12-09T09:17:17.333Z,97176.78804020582
2022-12-09T09:21:19.624Z,97157.41621840185
2022-12-09T09:24:19.068Z,97153.2910225224
2022-12-09T09:27:17.133Z,97152.56886439057
2022-12-09T09:31:19.428Z,97143.57659107931
2022-12-09T09:34:18.021Z,97144.43995297616
2022-12-09T09:37:17.648Z,97145.26034629764
2022-12-09T09:41:24.785Z,97148.34246383148
2022-12-09T09:44:23.271Z,97157.78353552068
2022-12-09T09:47:25.071Z,97136.26576186117
2022-12-09T09:51:20.563Z,97107.22431273114
2022-12-09T09:54:18.128Z,97102.33147267383
2022-12-09T09:57:23.438Z,97102.4125736791
2022-12-09T10:01:18.861Z,97103.83784199132
2022-12-09T10:04:28.751Z,97095.74064584794
2022-12-09T10:07:22.867Z,97109.04300619102
2022-12-09T10:11:23.313Z,97100.07118817084
2022-12-09T10:14:24.354Z,97092.48500790671
2022-12-09T10:17:26.090Z,97101.0223407711
2022-12-09T10:21:20.130Z,97114.14975380267
2022-12-09T10:24:22.288Z,97117.90709405325
2022-12-09T10:27:27.955Z,97099.02706268962
2022-12-09T10:31:16.763Z,97086.61976632327
2022-12-09T10:34:16.993Z,97098.65650087633
2022-12-09T10:37:26.752Z,97091.45617959333
2022-12-09T10:41:37.550Z,97081.21726816945
2022-12-09T10:44:19.683Z,97056.90576055674
2022-12-09T10:47:24.690Z,97078.88871701634
2022-12-09T10:51:20.027Z,97064.09102746531
2022-12-09T10:54:27.055Z,97039.28667180355
2022-12-09T10:57:26.723Z,97025.40042925048
2022-12-09T11:01:17.475Z,97010.53512457076
2022-12-09T11:04:22.788Z,97012.8666660868
2022-12-09T11:07:19.919Z,97011.616679731
2022-12-09T11:11:17.325Z,97014.53514290156
2022-12-09T11:14:28.659Z,97019.21558496803
2022-12-09T11:17:18.816Z,97022.8831836697
2022-12-09T11:21:34.302Z,96999.82511305434
2022-12-09T11:24:23.106Z,96988.99819194037
2022-12-09T11:27:27.386Z,96981.64348428404
2022-12-09T11:31:33.093Z,96977.32862041473
2022-12-09T11:34:22.337Z,96977.09508987884
2022-12-09T11:37:16.398Z,96967.9243131721
2022-12-09T11:42:18.128Z,96964.091950955
2022-12-09T11:44:25.274Z,96950.00901424831
2022-12-09T11:47:24.875Z,96943.20194033315
2022-12-09T11:51:21.413Z,96946.0833177383
2022-12-09T11:54:21.638Z,96930.61179951204
2022-12-09T11:57:33.324Z,96934.98295398749
2022-12-09T12:01:22.790Z,96920.21354056464
2022-12-09T12:04:22.006Z,96921.72877851261
2022-12-09T12:07:21.228Z,96913.50561921905
2022-12-09T12:11:18.600Z,96903.15791279504
2022-12-09T12:14:23.548Z,96902.0891256863
2022-12-09T12:17:21.238Z,96902.16344937844
2022-12-09T12:21:31.077Z,96893.00112386419
2022-12-09T12:24:45.429Z,96894.07372378597
2022-12-09T12:27:28.949Z,96918.01760516751
2022-12-09T12:31:28.368Z,96911.93528303511
2022-12-09T12:34:25.743Z,96872.94914476173
2022-12-09T12:37:34.851Z,96890.86472881857
2022-12-09T12:41:26.781Z,96889.01793468026
2022-12-09T13:01:26.164Z,96873.31468235288
2022-12-09T13:04:22.326Z,96868.26066614994
2022-12-09T13:07:26.995Z,96864.6326595961
2022-12-09T13:11:21.499Z,96857.00010991129
2022-12-09T13:14:22.332Z,96860.04446160774
2022-12-09T13:17:18.800Z,96854.63984249646
2022-12-09T13:21:17.908Z,96870.71367810367
2022-12-09T13:24:29.900Z,96869.08520546506
2022-12-09T13:27:23.589Z,96868.82532343513
2022-12-09T13:31:25.062Z,96881.83167741168
2022-12-09T13:34:27.975Z,96869.8702015118
2022-12-09T13:37:53.598Z,96879.33816501216
2022-12-09T13:41:48.750Z,96881.9394496134
2022-12-09T13:44:18.595Z,96881.63191774348
2022-12-09T13:47:35.541Z,96895.32018824099
2022-12-09T13:51:17.950Z,96897.3284839248
2022-12-09T13:54:18.733Z,96892.95559769732
2022-12-09T13:57:24.574Z,96893.86287042616
2022-12-09T14:01:23.718Z,96895.06902740206
2022-12-09T14:04:23.357Z,96894.16107706646
2022-12-09T14:07:31.656Z,96898.12504480172
2022-12-09T14:11:50.879Z,96902.50794829182
2022-12-09T14:14:51.020Z,96900.17978740408
2022-12-09T14:17:56.060Z,96887.2447602188
2022-12-09T14:21:32.850Z,96898.00101103661
2022-12-09T14:24:34.307Z,96896.53019948608
2022-12-09T14:27:19.135Z,96893.96328188975
2022-12-09T14:32:16.865Z,96893.29883994136
2022-12-09T14:34:31.707Z,96885.3069369414
2022-12-09T14:37:32.065Z,96877.83983511876
2022-12-09T14:41:22.795Z,96881.77806614117
2022-12-09T14:44:25.818Z,96874.31730263107
2022-12-09T14:47:21.890Z,96868.4335318584
2022-12-09T14:51:19.076Z,96853.64377067145
2022-12-09T14:54:21.539Z,96859.72703558009
2022-12-09T14:57:21.506Z,96869.30773222758
2022-12-09T15:01:18.537Z,96867.26306330167
2022-12-09T15:04:29.080Z,96878.3552514449
2022-12-09T15:07:19.072Z,96862.56821921149
2022-12-09T15:11:19.863Z,96853.01667282544
2022-12-09T15:14:32.261Z,96863.3188762294
2022-12-09T15:17:29.320Z,96849.42781096656
2022-12-09T15:21:26.811Z,96840.36731491599
2022-12-09T15:24:19.131Z,96845.2650958893
2022-12-09T15:27:18.780Z,96843.8668654807
2022-12-09T15:31:22.024Z,96834.35616359988
2022-12-09T15:34:24.786Z,96837.31835353405
2022-12-09T15:37:18.960Z,96837.47590602655
2022-12-09T15:42:25.508Z,96843.54676270421
2022-12-09T15:44:20.963Z,96844.78351590637
2022-12-09T15:47:23.242Z,96840.90368431529
2022-12-09T15:51:20.966Z,96838.29569927134
2022-12-09T15:54:21.950Z,96846.3943817205
2022-12-09T15:57:19.418Z,96851.66979854077
2022-12-09T16:01:20.373Z,96835.9873424921
2022-12-09T16:04:20.557Z,96825.14359880323
2022-12-09T16:07:19.074Z,96825.98837278892
2022-12-09T16:11:34.526Z,96837.81866491673
2022-12-09T16:14:18.585Z,96831.09031450059
2022-12-09T16:17:20.912Z,96824.7610880746
2022-12-09T16:21:24.926Z,96827.0129890412
2022-12-09T16:24:17.319Z,96823.67937603389
2022-12-09T16:27:21.971Z,96822.85879503173
2022-12-09T16:31:17.764Z,96827.06642598344
2022-12-09T16:34:20.549Z,96830.06524774029
2022-12-09T16:37:26.745Z,96830.31195985858
2022-12-09T16:41:16.832Z,96820.29378043645
2022-12-09T16:44:19.187Z,96818.69358157787
2022-12-09T16:47:19.276Z,96815.01776005418
2022-12-09T16:51:24.067Z,96816.09953809038
2022-12-09T16:54:20.498Z,96823.86137480156
2022-12-09T16:57:19.205Z,96813.08314994027
2022-12-09T17:01:18.013Z,96812.67958150005
2022-12-09T17:04:21.153Z,96827.53383838371
2022-12-09T17:07:16.633Z,96828.73525480914
2022-12-09T17:11:17.463Z,96825.07385070968
2022-12-09T17:14:16.945Z,96830.85297040101
2022-12-09T17:17:16.708Z,96827.20082383792
2022-12-09T17:21:16.653Z,96831.00565552882
2022-12-09T17:24:16.470Z,96822.7075481058
2022-12-09T17:27:16.808Z,96817.49406465075
2022-12-09T17:31:18.934Z,96822.30442002922
2022-12-09T17:34:21.539Z,96826.3827364142
2022-12-09T17:37:17.020Z,96823.0024005157
2022-12-09T17:41:19.055Z,96821.27185773401
2022-12-09T17:44:16.996Z,96826.89592211091
2022-12-09T17:47:16.490Z,96824.78466878372
2022-12-09T17:51:18.114Z,96828.49315663295
2022-12-09T17:54:17.098Z,96830.7936940549
2022-12-09T17:57:17.041Z,96826.06345374446
2022-12-09T18:01:18.707Z,96824.71712969651
2022-12-09T18:04:16.488Z,96827.33024171669
2022-12-09T18:07:16.541Z,96821.16858014063
2022-12-09T18:11:16.427Z,96822.75738074529
2022-12-09T18:14:17.631Z,96837.39122510394
2022-12-09T18:17:16.905Z,96853.36897376363
2022-12-09T18:21:16.739Z,96849.48864099647
2022-12-09T18:24:16.785Z,96843.04267576581
2022-12-09T18:27:16.876Z,96842.38744547495
2022-12-09T18:31:17.418Z,96839.4804828101
2022-12-09T18:34:17.016Z,96820.33043872904
2022-12-09T18:37:19.004Z,96829.8548981672
2022-12-09T18:41:18.381Z,96832.98123143504
2022-12-09T18:44:16.555Z,96840.02308388137
2022-12-09T18:47:16.507Z,96831.01349550881
2022-12-09T18:51:19.487Z,96829.59353504443
2022-12-09T18:54:18.844Z,96826.04224922424
2022-12-09T18:57:17.124Z,96826.97035554169
2022-12-09T19:01:18.312Z,96827.50890943919
2022-12-09T19:04:18.234Z,96838.27164232657
2022-12-09T19:07:17.137Z,96831.23026342
2022-12-09T19:11:16.348Z,96836.80538432732
2022-12-09T19:14:19.077Z,96831.48527510978
2022-12-09T19:17:16.573Z,96830.50999462571
2022-12-09T19:21:18.500Z,96825.59619354643
2022-12-09T19:24:18.704Z,96826.73296067605
2022-12-09T19:27:16.459Z,96825.95795751287
2022-12-09T19:31:19.341Z,96841.15952104813
2022-12-09T19:34:19.460Z,96836.31069971263
2022-12-09T19:37:16.973Z,96835.40678998423
2022-12-09T19:41:16.584Z,96823.05843212623
2022-12-09T19:44:37.161Z,96812.65978593858
2022-12-09T19:47:16.411Z,96826.41633267254
2022-12-09T19:51:20.420Z,96826.90363344764
2022-12-09T19:54:17.158Z,96817.22190271283
2022-12-09T19:57:16.899Z,96822.82389633394
2022-12-09T20:01:19.288Z,96839.47764732652
2022-12-09T20:04:47.406Z,96840.10330711241
2022-12-09T20:07:17.467Z,96836.90624400626
2022-12-09T20:11:19.163Z,96836.85376303016
2022-12-09T20:14:16.945Z,96842.32672116326
2022-12-09T20:17:17.635Z,96840.2998448231
2022-12-09T20:21:18.705Z,96830.11858530206
2022-12-09T20:24:17.058Z,96833.14129860171
2022-12-09T20:27:16.786Z,96834.13405009158
2022-12-09T20:31:19.147Z,96839.95793177164
2022-12-09T20:34:17.962Z,96838.3228948163
2022-12-09T20:37:17.136Z,96829.9211056946
2022-12-09T20:41:16.657Z,96844.45481025337
2022-12-09T20:44:17.247Z,96844.30422978707
2022-12-09T20:47:16.842Z,96848.45555201259
2022-12-09T21:01:18.661Z,96847.00221201728
2022-12-09T21:04:16.771Z,96846.4138606792
2022-12-09T21:07:17.148Z,96843.15573111577
2022-12-09T21:11:18.583Z,96848.90754600943
2022-12-09T21:14:19.194Z,96847.74545537269
2022-12-09T21:17:16.691Z,96847.767217916
2022-12-09T21:21:18.285Z,96852.83414480975
2022-12-09T21:24:18.265Z,96856.5010219026
2022-12-09T21:27:16.552Z,96851.06560544683
2022-12-09T21:31:18.260Z,96843.80578398901
2022-12-09T21:34:17.953Z,96844.43419979617
2022-12-09T21:37:17.005Z,96842.97731705697
2022-12-09T21:41:18.338Z,96849.22711711425
2022-12-09T21:44:18.538Z,96838.46581073255
2022-12-09T21:47:16.198Z,96840.04812977779
2022-12-09T21:51:16.751Z,96838.46581073255
2022-12-09T21:54:17.125Z,96838.96078251326
2022-12-09T21:57:16.682Z,96832.43704839548
2022-12-09T22:01:18.464Z,96832.38059139244
2022-12-09T22:04:17.421Z,96827.13329040368
2022-12-09T22:07:16.368Z,96829.89459774038
2022-12-09T22:11:18.165Z,96825.27241844067
2022-12-09T22:14:16.480Z,96821.49410066019
2022-12-09T22:17:16.738Z,96826.39323037589
2022-12-09T22:21:25.698Z,96822.19575188139
2022-12-09T22:24:17.157Z,96824.92056768219
2022-12-09T22:27:16.652Z,96820.81068436215
2022-12-09T22:31:18.632Z,96825.56780444928
2022-12-09T22:34:18.896Z,96825.53030249677
2022-12-09T22:37:42.315Z,96810.58274405383
2022-12-09T22:41:18.575Z,96805.81226184015
2022-12-09T22:44:18.710Z,96822.57782209307
2022-12-09T22:47:16.463Z,96816.355088313
2022-12-09T22:51:18.306Z,96813.38442535371
2022-12-09T22:54:16.313Z,96822.54073976245
2022-12-09T22:57:16.486Z,96815.15315333634
2022-12-09T23:01:20.319Z,96807.76893185514
2022-12-09T23:04:18.868Z,96808.70697606003
2022-12-09T23:07:17.198Z,96787.05696070375
2022-12-09T23:11:19.643Z,96788.29457659583
2022-12-09T23:14:17.311Z,96794.20601198445
2022-12-09T23:17:17.412Z,96794.55679945137
2022-12-09T23:21:20.317Z,96784.26014475025
2022-12-09T23:24:24.015Z,96786.9851221267
2022-12-09T23:27:17.045Z,96806.01861583615
2022-12-09T23:31:18.881Z,96799.03006113993
2022-12-09T23:34:17.483Z,96794.0355081133
2022-12-09T23:37:16.943Z,96789.32084638216
2022-12-09T23:41:18.967Z,96802.40180876694
2022-12-09T23:44:17.671Z,96770.39908155269
2022-12-09T23:47:16.344Z,96768.62775563233
2022-12-09T23:51:18.641Z,96774.56058837562
2022-12-09T23:54:17.835Z,96777.82381972627
2022-12-09T23:57:17.170Z,96775.53919404195
